createdAt,value
2018-07-14T00:01:25.533Z,0.00
2018-07-14T00:02:25.553Z,0.00
2018-07-14T00:04:18.502Z,0.00
2018-07-14T00:05:18.499Z,0.00
2018-07-14T00:07:11.425Z,0.00
2018-07-14T00:08:11.444Z,0.00
2018-07-14T00:10:04.436Z,0.00
2018-07-14T00:11:04.387Z,0.00
2018-07-14T00:12:57.347Z,0.00
2018-07-14T00:13:57.340Z,0.00
2018-07-14T00:15:50.279Z,0.00
2018-07-14T00:16:50.294Z,0.00
2018-07-14T00:18:43.241Z,0.00
2018-07-14T00:19:43.235Z,0.00
2018-07-14T00:21:36.163Z,0.00
2018-07-14T00:22:36.176Z,0.00
2018-07-14T00:24:29.176Z,0.00
2018-07-14T00:25:29.130Z,0.00
2018-07-14T00:27:22.058Z,0.00
2018-07-14T00:28:22.074Z,0.00
2018-07-14T00:30:15.022Z,0.00
2018-07-14T00:31:15.018Z,0.00
2018-07-14T00:33:07.979Z,0.00
2018-07-14T00:34:07.974Z,0.00
2018-07-14T00:36:00.894Z,0.00
2018-07-14T00:37:00.911Z,0.00
2018-07-14T00:38:53.858Z,0.00
2018-07-14T00:39:53.855Z,0.00
2018-07-14T00:41:46.784Z,0.00
2018-07-14T00:42:46.803Z,0.00
2018-07-14T00:44:39.753Z,0.00
2018-07-14T00:45:39.750Z,0.00
2018-07-14T00:47:32.680Z,0.00
2018-07-14T00:48:32.698Z,0.00
2018-07-14T00:50:25.641Z,0.00
2018-07-14T00:51:25.648Z,0.00
2018-07-14T00:53:18.591Z,0.00
2018-07-14T00:54:18.584Z,0.00
2018-07-14T00:56:11.519Z,0.00
2018-07-14T00:57:11.532Z,0.00
2018-07-14T00:59:04.483Z,0.00
2018-07-14T01:00:04.478Z,0.00
2018-07-14T01:01:57.405Z,0.00
2018-07-14T01:02:57.420Z,0.00
2018-07-14T01:04:50.376Z,0.00
2018-07-14T01:05:50.372Z,0.00
2018-07-14T01:07:43.302Z,0.00
2018-07-14T01:08:43.312Z,0.00
2018-07-14T01:10:36.272Z,0.00
2018-07-14T01:11:36.266Z,0.00
2018-07-14T01:13:29.209Z,0.00
2018-07-14T01:14:29.206Z,0.00
2018-07-14T01:16:22.142Z,0.00
2018-07-14T01:17:22.159Z,0.00
2018-07-14T01:19:15.108Z,0.00
2018-07-14T01:20:15.103Z,0.00
2018-07-14T01:22:08.027Z,0.00
2018-07-14T01:23:08.049Z,0.00
2018-07-14T01:25:00.992Z,0.00
2018-07-14T01:26:00.991Z,0.00
2018-07-14T01:27:53.918Z,0.00
2018-07-14T01:28:53.931Z,0.00
2018-07-14T01:30:46.887Z,0.00
2018-07-14T01:31:46.880Z,0.00
2018-07-14T01:33:39.834Z,0.00
2018-07-14T01:34:39.830Z,0.00
2018-07-14T01:36:32.762Z,0.00
2018-07-14T01:37:32.771Z,0.00
2018-07-14T01:39:25.729Z,0.00
2018-07-14T01:40:25.726Z,0.00
2018-07-14T01:42:18.648Z,0.00
2018-07-14T01:43:18.666Z,0.00
2018-07-14T01:45:11.611Z,0.00
2018-07-14T01:46:11.607Z,0.00
2018-07-14T01:48:04.538Z,0.00
2018-07-14T01:49:04.551Z,0.00
2018-07-14T01:50:57.503Z,0.00
2018-07-14T01:51:57.491Z,0.00
2018-07-14T01:53:50.439Z,0.00
2018-07-14T01:54:50.436Z,0.00
2018-07-14T02:24:24.073Z,0.00
2018-07-14T02:25:24.059Z,0.00
2018-07-14T02:27:16.979Z,0.00
2018-07-14T02:28:16.989Z,0.00
2018-07-14T02:30:09.945Z,0.00
2018-07-14T02:31:09.919Z,0.00
2018-07-14T02:33:02.838Z,0.00
2018-07-14T02:34:02.850Z,0.00
2018-07-14T02:35:55.800Z,0.00
2018-07-14T02:36:55.789Z,0.00
2018-07-14T02:38:48.741Z,0.00
2018-07-14T02:39:48.726Z,0.00
2018-07-14T02:41:41.644Z,0.00
2018-07-14T02:42:41.673Z,0.00
2018-07-14T02:44:34.603Z,0.00
2018-07-14T02:45:34.600Z,0.00
2018-07-14T02:47:27.526Z,0.00
2018-07-14T02:48:27.538Z,0.00
2018-07-14T02:50:20.482Z,0.00
2018-07-14T02:51:20.477Z,0.00
2018-07-14T02:53:13.407Z,0.00
2018-07-14T02:54:13.418Z,0.00
2018-07-14T02:56:06.364Z,0.00
2018-07-14T02:57:06.356Z,0.00
2018-07-14T02:58:59.307Z,4.00
2018-07-14T02:59:59.302Z,4.00
2018-07-14T03:01:52.226Z,4.00
2018-07-14T03:02:52.242Z,4.00
2018-07-14T03:04:45.193Z,4.00
2018-07-14T03:05:45.185Z,4.00
2018-07-14T03:07:38.121Z,8.00
2018-07-14T03:08:38.129Z,4.00
2018-07-14T03:10:31.076Z,12.00
2018-07-14T03:11:31.074Z,12.00
2018-07-14T03:13:23.995Z,12.00
2018-07-14T03:14:24.012Z,16.00
2018-07-14T03:16:16.961Z,16.00
2018-07-14T03:17:16.957Z,24.00
2018-07-14T03:19:09.904Z,24.00
2018-07-14T03:20:09.903Z,28.00
2018-07-14T03:22:02.825Z,32.00
2018-07-14T03:23:02.843Z,36.00
2018-07-14T03:24:55.796Z,44.00
2018-07-14T03:25:55.792Z,48.00
2018-07-14T03:27:49.220Z,56.00
2018-07-14T03:28:49.231Z,60.00
2018-07-14T03:30:42.176Z,72.00
2018-07-14T03:31:42.168Z,76.00
2018-07-14T03:33:35.099Z,92.00
2018-07-14T03:34:35.112Z,96.00
2018-07-14T03:36:28.055Z,112.00
2018-07-14T03:37:28.053Z,120.00
2018-07-14T03:39:20.994Z,132.00
2018-07-14T03:40:20.994Z,140.00
2018-07-14T03:42:13.923Z,160.00
2018-07-14T03:43:13.936Z,172.00
2018-07-14T03:45:06.889Z,192.00
2018-07-14T03:46:06.887Z,204.00
2018-07-14T03:47:59.806Z,232.00
2018-07-14T03:48:59.822Z,244.00
2018-07-14T03:50:52.769Z,276.00
2018-07-14T03:51:52.761Z,292.00
2018-07-14T03:53:45.688Z,328.00
2018-07-14T03:54:45.701Z,344.00
2018-07-14T03:56:38.649Z,376.00
2018-07-14T03:57:38.646Z,400.00
2018-07-14T03:59:31.604Z,444.00
2018-07-14T04:00:31.588Z,468.00
2018-07-14T04:02:24.510Z,516.00
2018-07-14T04:03:24.526Z,540.00
2018-07-14T04:05:17.473Z,592.00
2018-07-14T04:06:17.468Z,620.00
2018-07-14T04:08:10.394Z,672.00
2018-07-14T04:09:10.412Z,704.00
2018-07-14T04:11:03.360Z,780.00
2018-07-14T04:12:03.355Z,828.00
2018-07-14T04:13:56.282Z,920.00
2018-07-14T04:14:56.298Z,968.00
2018-07-14T04:16:49.254Z,1032.00
2018-07-14T04:17:49.246Z,1064.00
2018-07-14T04:19:42.199Z,1124.00
2018-07-14T04:20:42.189Z,1152.00
2018-07-14T04:22:35.112Z,1220.00
2018-07-14T04:23:35.126Z,1248.00
2018-07-14T04:25:28.078Z,1312.00
2018-07-14T04:26:28.073Z,1348.00
2018-07-14T04:28:20.998Z,1424.00
2018-07-14T04:29:21.010Z,1464.00
2018-07-14T04:31:13.961Z,1560.00
2018-07-14T04:32:13.958Z,1620.00
2018-07-14T04:34:06.883Z,1740.00
2018-07-14T04:35:06.907Z,1804.00
2018-07-14T04:36:59.853Z,1916.00
2018-07-14T04:37:59.851Z,1972.00
2018-07-14T04:39:52.802Z,2064.00
2018-07-14T04:40:52.792Z,2100.00
2018-07-14T04:42:45.743Z,2196.00
2018-07-14T04:43:45.750Z,2252.00
2018-07-14T04:45:38.689Z,2344.00
2018-07-14T04:46:38.684Z,2388.00
2018-07-14T04:48:31.618Z,2460.00
2018-07-14T04:49:31.630Z,2496.00
2018-07-14T04:51:24.575Z,2564.00
2018-07-14T04:52:24.571Z,2608.00
2018-07-14T04:54:17.503Z,2676.00
2018-07-14T04:55:17.516Z,2720.00
2018-07-14T04:57:10.495Z,2820.00
2018-07-14T04:58:10.491Z,2884.00
2018-07-14T05:00:03.420Z,3012.00
2018-07-14T05:01:03.436Z,3072.00
2018-07-14T05:02:56.382Z,3224.00
2018-07-14T05:03:56.381Z,3748.00
2018-07-14T05:05:49.333Z,4080.00
2018-07-14T05:06:49.328Z,4516.00
2018-07-14T05:08:42.256Z,3472.00
2018-07-14T05:09:42.269Z,3516.00
2018-07-14T05:11:35.216Z,3652.00
2018-07-14T05:12:35.212Z,3660.00
2018-07-14T05:14:28.141Z,3800.00
2018-07-14T05:15:28.158Z,3732.00
2018-07-14T05:17:21.108Z,3692.00
2018-07-14T05:18:21.104Z,3716.00
2018-07-14T05:20:14.055Z,3796.00
2018-07-14T05:21:14.058Z,3848.00
2018-07-14T05:23:06.996Z,3992.00
2018-07-14T05:24:06.990Z,4052.00
2018-07-14T05:25:59.934Z,4132.00
2018-07-14T05:26:59.932Z,4212.00
2018-07-14T05:28:52.861Z,4372.00
2018-07-14T05:29:52.878Z,4508.00
2018-07-14T05:31:45.828Z,5156.00
2018-07-14T05:32:45.823Z,6236.00
2018-07-14T05:34:38.752Z,19232.00
2018-07-14T05:35:38.768Z,23904.00
2018-07-14T05:37:31.721Z,25984.00
2018-07-14T05:38:31.715Z,26784.00
2018-07-14T05:40:24.646Z,26528.00
2018-07-14T05:41:24.661Z,26176.00
2018-07-14T05:43:17.611Z,26240.00
2018-07-14T05:44:17.608Z,25792.00
2018-07-14T05:46:10.558Z,24256.00
2018-07-14T05:47:10.559Z,24032.00
2018-07-14T05:49:03.493Z,23808.00
2018-07-14T05:50:03.512Z,24384.00
2018-07-14T05:51:56.485Z,24928.00
2018-07-14T05:52:56.466Z,24608.00
2018-07-14T05:54:49.409Z,24256.00
2018-07-14T05:55:49.426Z,23456.00
2018-07-14T05:57:42.378Z,22656.00
2018-07-14T05:58:42.380Z,22976.00
2018-07-14T06:00:35.321Z,22912.00
2018-07-14T06:01:35.339Z,22976.00
2018-07-14T06:03:28.300Z,23200.00
2018-07-14T06:04:28.298Z,23584.00
2018-07-14T06:06:21.260Z,23328.00
2018-07-14T06:07:21.260Z,23392.00
2018-07-14T06:09:14.210Z,22560.00
2018-07-14T06:10:14.228Z,22848.00
2018-07-14T06:12:07.187Z,22656.00
2018-07-14T06:13:07.192Z,23072.00
2018-07-14T06:15:00.128Z,23296.00
2018-07-14T06:16:00.151Z,24192.00
2018-07-14T06:17:53.115Z,24928.00
2018-07-14T06:18:53.116Z,24160.00
2018-07-14T06:20:46.053Z,24576.00
2018-07-14T06:21:46.077Z,21344.00
2018-07-14T06:23:39.034Z,20928.00
2018-07-14T06:24:39.035Z,23808.00
2018-07-14T06:26:31.998Z,22976.00
2018-07-14T06:27:32.006Z,23040.00
2018-07-14T06:29:24.942Z,21536.00
2018-07-14T06:30:24.965Z,21376.00
2018-07-14T06:32:17.933Z,20704.00
2018-07-14T06:33:17.940Z,20192.00
2018-07-14T06:35:10.880Z,21984.00
2018-07-14T06:36:10.905Z,22272.00
2018-07-14T06:38:03.872Z,22304.00
2018-07-14T06:39:03.875Z,22400.00
2018-07-14T06:40:56.826Z,22112.00
2018-07-14T06:41:56.852Z,21504.00
2018-07-14T06:43:49.813Z,19776.00
2018-07-14T06:44:49.835Z,20192.00
2018-07-14T06:46:42.789Z,19776.00
2018-07-14T06:47:42.791Z,19488.00
2018-07-14T06:49:35.743Z,20064.00
2018-07-14T06:50:35.764Z,20320.00
2018-07-14T06:52:28.733Z,20544.00
2018-07-14T06:53:28.736Z,20192.00
2018-07-14T06:55:21.681Z,19968.00
2018-07-14T06:56:21.705Z,19360.00
2018-07-14T06:58:14.670Z,19328.00
2018-07-14T06:59:14.670Z,19360.00
2018-07-14T07:01:07.616Z,19200.00
2018-07-14T07:02:07.646Z,18656.00
2018-07-14T07:04:00.614Z,18432.00
2018-07-14T07:05:00.623Z,17664.00
2018-07-14T07:06:53.584Z,17408.00
2018-07-14T07:07:53.587Z,16640.00
2018-07-14T07:09:46.536Z,17568.00
2018-07-14T07:10:46.560Z,17728.00
2018-07-14T07:12:39.522Z,15840.00
2018-07-14T07:13:39.594Z,14472.00
2018-07-14T07:15:32.478Z,11484.00
2018-07-14T07:16:32.504Z,10464.00
2018-07-14T07:18:25.473Z,10040.00
2018-07-14T07:19:25.472Z,9932.00
2018-07-14T07:21:18.469Z,9828.00
2018-07-14T07:22:18.450Z,9792.00
2018-07-14T07:24:11.422Z,9656.00
2018-07-14T07:25:11.426Z,9536.00
2018-07-14T07:27:04.389Z,9472.00
2018-07-14T07:28:04.391Z,9400.00
2018-07-14T07:29:57.342Z,9332.00
2018-07-14T07:30:57.365Z,9276.00
2018-07-14T07:32:50.337Z,9168.00
2018-07-14T07:33:50.335Z,9112.00
2018-07-14T07:35:43.281Z,9156.00
2018-07-14T07:36:43.308Z,9096.00
2018-07-14T07:38:36.270Z,9036.00
2018-07-14T07:39:36.277Z,9044.00
2018-07-14T07:41:29.223Z,9028.00
2018-07-14T07:42:29.374Z,9064.00
2018-07-14T07:44:22.218Z,9048.00
2018-07-14T07:45:22.223Z,9048.00
2018-07-14T07:47:15.190Z,9012.00
2018-07-14T07:48:15.193Z,9004.00
2018-07-14T07:50:08.141Z,9056.00
2018-07-14T07:51:08.162Z,9040.00
2018-07-14T07:53:01.135Z,9164.00
2018-07-14T07:54:01.140Z,9224.00
2018-07-14T07:55:54.082Z,9328.00
2018-07-14T07:56:54.106Z,9308.00
2018-07-14T07:58:47.069Z,9156.00
2018-07-14T07:59:47.077Z,9016.00
2018-07-14T08:01:40.022Z,9000.00
2018-07-14T08:02:40.044Z,8868.00
2018-07-14T08:04:33.010Z,8620.00
2018-07-14T08:05:33.014Z,8500.00
2018-07-14T08:07:25.982Z,8464.00
2018-07-14T08:08:25.986Z,8420.00
2018-07-14T08:10:18.934Z,8380.00
2018-07-14T08:11:18.955Z,8352.00
2018-07-14T08:13:11.918Z,8236.00
2018-07-14T08:14:11.924Z,8272.00
2018-07-14T08:16:04.879Z,8364.00
2018-07-14T08:17:04.899Z,8416.00
2018-07-14T08:18:57.861Z,8236.00
2018-07-14T08:19:57.858Z,8172.00
2018-07-14T08:21:50.805Z,7876.00
2018-07-14T08:22:50.848Z,7880.00
2018-07-14T08:24:43.792Z,7640.00
2018-07-14T08:25:43.793Z,7500.00
2018-07-14T08:27:36.757Z,7380.00
2018-07-14T08:28:36.762Z,7356.00
2018-07-14T08:30:29.708Z,6988.00
2018-07-14T08:31:29.726Z,6012.00
2018-07-14T08:33:22.689Z,4896.00
2018-07-14T08:34:22.702Z,4596.00
2018-07-14T08:36:15.642Z,4292.00
2018-07-14T08:37:15.664Z,4300.00
2018-07-14T08:39:08.634Z,4796.00
2018-07-14T08:40:08.635Z,5184.00
2018-07-14T08:42:01.572Z,5636.00
2018-07-14T08:43:01.597Z,5708.00
2018-07-14T08:44:54.558Z,4972.00
2018-07-14T08:45:54.563Z,4884.00
2018-07-14T08:47:47.525Z,4836.00
2018-07-14T08:48:47.530Z,4652.00
2018-07-14T08:50:40.469Z,4460.00
2018-07-14T08:51:40.492Z,4480.00
2018-07-14T08:53:33.448Z,4664.00
2018-07-14T08:54:33.449Z,4740.00
2018-07-14T08:56:26.391Z,4840.00
2018-07-14T08:57:26.420Z,4864.00
2018-07-14T08:59:19.370Z,4876.00
2018-07-14T09:00:19.370Z,4792.00
2018-07-14T09:02:12.310Z,4716.00
2018-07-14T09:03:12.332Z,4684.00
2018-07-14T09:05:05.290Z,4740.00
2018-07-14T09:06:05.293Z,4728.00
2018-07-14T09:07:58.251Z,4672.00
2018-07-14T09:08:58.251Z,4640.00
2018-07-14T09:10:51.190Z,4576.00
2018-07-14T09:11:51.211Z,4568.00
2018-07-14T09:13:44.170Z,4500.00
2018-07-14T09:14:44.170Z,4452.00
2018-07-14T09:16:37.110Z,4436.00
2018-07-14T09:17:37.132Z,4372.00
2018-07-14T09:19:30.093Z,4336.00
2018-07-14T09:20:30.096Z,4356.00
2018-07-14T09:22:23.043Z,4308.00
2018-07-14T09:23:23.066Z,4316.00
2018-07-14T09:25:16.022Z,4300.00
2018-07-14T09:26:16.028Z,4276.00
2018-07-14T09:28:09.001Z,4144.00
2018-07-14T09:29:08.983Z,4068.00
2018-07-14T09:31:01.919Z,3936.00
2018-07-14T09:32:01.939Z,3808.00
2018-07-14T09:33:54.900Z,3632.00
2018-07-14T09:34:54.900Z,3504.00
2018-07-14T09:36:47.842Z,3460.00
2018-07-14T09:37:47.863Z,3504.00
2018-07-14T09:39:40.818Z,3600.00
2018-07-14T09:40:40.822Z,3616.00
2018-07-14T09:42:33.771Z,3416.00
2018-07-14T09:43:33.796Z,3204.00
2018-07-14T09:45:26.740Z,3356.00
2018-07-14T09:46:26.746Z,3352.00
2018-07-14T09:48:19.696Z,3352.00
2018-07-14T09:49:19.716Z,3332.00
2018-07-14T09:51:12.639Z,3244.00
2018-07-14T09:52:12.663Z,3212.00
2018-07-14T09:54:05.608Z,3196.00
2018-07-14T09:55:05.662Z,3188.00
2018-07-14T09:56:58.554Z,3172.00
2018-07-14T09:57:58.574Z,3168.00
2018-07-14T09:59:51.531Z,3128.00
2018-07-14T10:00:51.530Z,3104.00
2018-07-14T10:02:44.467Z,3092.00
2018-07-14T10:03:44.486Z,3088.00
2018-07-14T10:05:37.447Z,3080.00
2018-07-14T10:06:37.448Z,3072.00
2018-07-14T10:08:30.407Z,3044.00
2018-07-14T10:09:30.405Z,3028.00
2018-07-14T10:11:23.342Z,3020.00
2018-07-14T10:12:23.362Z,3008.00
2018-07-14T10:14:16.316Z,3000.00
2018-07-14T10:15:16.316Z,2992.00
2018-07-14T10:17:09.262Z,2968.00
2018-07-14T10:18:09.280Z,2952.00
2018-07-14T10:20:02.237Z,2944.00
2018-07-14T10:21:02.239Z,2944.00
2018-07-14T10:22:55.175Z,2920.00
2018-07-14T10:23:55.196Z,2900.00
2018-07-14T10:25:48.239Z,2888.00
2018-07-14T10:26:48.154Z,2864.00
2018-07-14T10:28:41.116Z,2832.00
2018-07-14T10:29:41.114Z,2812.00
2018-07-14T10:31:34.049Z,2800.00
2018-07-14T10:32:34.069Z,2796.00
2018-07-14T10:34:27.030Z,2780.00
2018-07-14T10:35:27.032Z,2780.00
2018-07-14T10:37:19.968Z,2752.00
2018-07-14T10:38:19.996Z,2748.00
2018-07-14T10:40:12.948Z,2764.00
2018-07-14T10:41:12.945Z,2764.00
2018-07-14T10:43:05.899Z,2820.00
2018-07-14T10:44:05.910Z,2784.00
2018-07-14T10:45:58.865Z,2800.00
2018-07-14T10:46:58.862Z,2752.00
2018-07-14T10:48:51.826Z,2632.00
2018-07-14T10:49:51.823Z,2648.00
2018-07-14T10:51:44.761Z,2668.00
2018-07-14T10:52:44.779Z,2684.00
2018-07-14T10:54:37.741Z,2700.00
2018-07-14T10:55:37.738Z,2720.00
2018-07-14T10:57:30.695Z,2724.00
2018-07-14T10:58:30.722Z,2704.00
2018-07-14T11:00:23.674Z,2692.00
2018-07-14T11:01:23.658Z,2744.00
2018-07-14T11:03:16.606Z,2836.00
2018-07-14T11:04:16.624Z,2860.00
2018-07-14T11:06:09.573Z,2868.00
2018-07-14T11:07:09.575Z,2828.00
2018-07-14T11:09:02.532Z,2800.00
2018-07-14T11:10:02.536Z,2796.00
2018-07-14T11:11:55.475Z,2880.00
2018-07-14T11:12:55.497Z,2956.00
2018-07-14T11:14:48.454Z,3052.00
2018-07-14T11:15:48.455Z,3008.00
2018-07-14T11:17:41.442Z,2888.00
2018-07-14T11:18:41.412Z,2888.00
2018-07-14T11:20:34.365Z,2972.00
2018-07-14T11:21:34.368Z,3136.00
2018-07-14T11:23:27.303Z,3352.00
2018-07-14T11:24:27.324Z,3336.00
2018-07-14T11:26:20.285Z,3472.00
2018-07-14T11:27:20.286Z,3344.00
2018-07-14T11:29:13.252Z,3168.00
2018-07-14T11:30:13.302Z,3052.00
2018-07-14T11:32:06.190Z,2960.00
2018-07-14T11:33:06.209Z,2844.00
2018-07-14T11:34:59.179Z,2740.00
2018-07-14T11:35:59.177Z,2704.00
2018-07-14T11:37:52.123Z,2696.00
2018-07-14T11:38:52.143Z,2708.00
2018-07-14T11:40:45.099Z,2740.00
2018-07-14T11:41:45.097Z,2760.00
2018-07-14T11:43:38.037Z,2840.00
2018-07-14T11:44:38.065Z,2844.00
2018-07-14T11:46:31.019Z,2748.00
2018-07-14T11:47:31.076Z,2720.00
2018-07-14T11:49:23.976Z,2744.00
2018-07-14T11:50:23.981Z,2724.00
2018-07-14T11:52:16.913Z,2724.00
2018-07-14T11:53:16.937Z,2752.00
2018-07-14T11:55:09.897Z,2652.00
2018-07-14T11:56:09.897Z,2656.00
2018-07-14T11:58:02.832Z,2656.00
2018-07-14T11:59:02.854Z,2660.00
2018-07-14T12:00:55.822Z,2612.00
2018-07-14T12:01:55.886Z,2612.00
2018-07-14T12:03:48.758Z,2700.00
2018-07-14T12:04:48.782Z,2756.00
2018-07-14T12:06:41.747Z,2808.00
2018-07-14T12:07:41.745Z,2812.00
2018-07-14T12:09:34.699Z,2736.00
2018-07-14T12:10:34.703Z,2744.00
2018-07-14T12:12:27.647Z,2712.00
2018-07-14T12:13:27.720Z,2652.00
2018-07-14T12:15:20.625Z,2568.00
2018-07-14T12:16:20.631Z,2604.00
2018-07-14T12:18:13.566Z,2632.00
2018-07-14T12:19:13.589Z,2644.00
2018-07-14T12:21:06.547Z,2596.00
2018-07-14T12:22:06.547Z,2572.00
2018-07-14T12:23:59.486Z,2572.00
2018-07-14T12:24:59.505Z,2564.00
2018-07-14T12:26:52.470Z,2572.00
2018-07-14T12:27:52.488Z,2568.00
2018-07-14T12:29:45.425Z,2548.00
2018-07-14T12:30:45.427Z,2544.00
2018-07-14T12:32:38.365Z,2556.00
2018-07-14T12:33:38.385Z,2568.00
2018-07-14T12:35:31.347Z,2588.00
2018-07-14T12:36:31.381Z,2604.00
2018-07-14T12:38:24.286Z,2600.00
2018-07-14T12:39:24.307Z,2608.00
2018-07-14T12:41:17.264Z,2756.00
2018-07-14T12:42:17.264Z,2900.00
2018-07-14T12:44:10.204Z,3076.00
2018-07-14T12:45:10.224Z,3088.00
2018-07-14T12:47:03.188Z,3004.00
2018-07-14T12:48:03.186Z,2836.00
2018-07-14T12:49:56.145Z,2700.00
2018-07-14T12:50:56.149Z,2664.00
2018-07-14T12:52:49.097Z,2660.00
2018-07-14T12:53:49.125Z,2652.00
2018-07-14T12:55:42.072Z,2628.00
2018-07-14T12:56:42.073Z,2580.00
2018-07-14T12:58:35.014Z,2576.00
2018-07-14T12:59:35.037Z,2612.00
2018-07-14T13:01:27.995Z,2604.00
2018-07-14T13:02:27.998Z,2540.00
2018-07-14T13:04:20.948Z,2472.00
2018-07-14T13:05:20.962Z,2460.00
2018-07-14T13:07:13.923Z,2480.00
2018-07-14T13:08:13.922Z,2524.00
2018-07-14T13:10:06.895Z,2556.00
2018-07-14T13:11:06.883Z,2612.00
2018-07-14T13:12:59.823Z,2608.00
2018-07-14T13:13:59.846Z,2564.00
2018-07-14T13:15:52.806Z,2488.00
2018-07-14T13:16:52.804Z,2472.00
2018-07-14T13:18:45.744Z,2428.00
2018-07-14T13:19:45.764Z,2412.00
2018-07-14T13:21:38.729Z,2424.00
2018-07-14T13:22:38.726Z,2420.00
2018-07-14T13:24:31.668Z,2432.00
2018-07-14T13:25:31.690Z,2396.00
2018-07-14T13:27:24.657Z,2380.00
2018-07-14T13:28:24.655Z,2376.00
2018-07-14T13:30:17.695Z,2360.00
2018-07-14T13:31:17.614Z,2364.00
2018-07-14T13:33:10.556Z,2356.00
2018-07-14T13:34:10.580Z,2352.00
2018-07-14T13:36:03.536Z,2360.00
2018-07-14T13:37:03.538Z,2344.00
2018-07-14T13:38:56.569Z,2336.00
2018-07-14T13:39:56.540Z,2344.00
2018-07-14T13:41:49.500Z,2348.00
2018-07-14T13:42:49.499Z,2332.00
2018-07-14T13:44:42.436Z,2332.00
2018-07-14T13:45:42.458Z,2328.00
2018-07-14T13:47:35.420Z,2300.00
2018-07-14T13:48:35.419Z,2288.00
2018-07-14T13:50:28.381Z,2300.00
2018-07-14T13:51:28.377Z,2292.00
2018-07-14T13:53:21.317Z,2296.00
2018-07-14T13:54:21.341Z,2296.00
2018-07-14T13:56:14.296Z,2300.00
2018-07-14T13:57:14.297Z,2288.00
2018-07-14T13:59:07.236Z,2276.00
2018-07-14T14:00:07.255Z,2276.00
2018-07-14T14:02:00.212Z,2276.00
2018-07-14T14:03:00.214Z,2268.00
2018-07-14T14:04:53.151Z,2244.00
2018-07-14T14:05:53.176Z,2260.00
2018-07-14T14:07:46.136Z,2264.00
2018-07-14T14:08:46.134Z,2264.00
2018-07-14T14:10:39.096Z,2268.00
2018-07-14T14:11:39.103Z,2268.00
2018-07-14T14:13:32.038Z,2244.00
2018-07-14T14:14:32.060Z,2236.00
2018-07-14T14:16:25.017Z,2212.00
2018-07-14T14:17:25.017Z,2212.00
2018-07-14T14:19:17.961Z,2204.00
2018-07-14T14:20:18.007Z,2200.00
2018-07-14T14:22:10.938Z,2192.00
2018-07-14T14:23:10.937Z,2184.00
2018-07-14T14:25:04.388Z,2176.00
2018-07-14T14:26:04.399Z,2164.00
2018-07-14T14:27:57.358Z,2152.00
2018-07-14T14:28:57.360Z,2152.00
2018-07-14T14:30:50.320Z,2136.00
2018-07-14T14:31:50.320Z,2124.00
2018-07-14T14:33:43.261Z,2128.00
2018-07-14T14:34:43.280Z,2120.00
2018-07-14T14:36:36.238Z,2108.00
2018-07-14T14:37:36.238Z,2104.00
2018-07-14T14:39:29.184Z,2092.00
2018-07-14T14:40:29.198Z,2088.00
2018-07-14T14:42:22.167Z,2088.00
2018-07-14T14:43:22.163Z,2080.00
2018-07-14T14:45:15.103Z,2060.00
2018-07-14T14:46:15.125Z,2060.00
2018-07-14T14:48:08.079Z,2044.00
2018-07-14T14:49:08.081Z,2044.00
2018-07-14T14:51:01.043Z,2040.00
2018-07-14T14:52:01.085Z,2020.00
2018-07-14T14:53:53.979Z,2000.00
2018-07-14T14:54:54.007Z,1992.00
2018-07-14T14:56:46.958Z,1992.00
2018-07-14T14:57:46.961Z,1992.00
2018-07-14T14:59:39.903Z,1988.00
2018-07-14T15:00:39.924Z,1976.00
2018-07-14T15:02:32.886Z,1968.00
2018-07-14T15:03:32.893Z,1964.00
2018-07-14T15:05:25.849Z,1956.00
2018-07-14T15:06:25.848Z,1956.00
2018-07-14T15:08:18.806Z,1944.00
2018-07-14T15:09:18.861Z,1936.00
2018-07-14T15:11:11.772Z,1940.00
2018-07-14T15:12:11.766Z,1924.00
2018-07-14T15:14:04.707Z,1916.00
2018-07-14T15:15:04.737Z,1916.00
2018-07-14T15:16:57.686Z,1896.00
2018-07-14T15:17:57.692Z,1888.00
2018-07-14T15:19:50.628Z,1888.00
2018-07-14T15:20:50.651Z,1872.00
2018-07-14T15:22:43.606Z,1848.00
2018-07-14T15:23:43.606Z,1832.00
2018-07-14T15:25:36.548Z,1840.00
2018-07-14T15:26:36.567Z,1852.00
2018-07-14T15:28:29.526Z,1836.00
2018-07-14T15:29:29.525Z,1836.00
2018-07-14T15:31:22.487Z,1824.00
2018-07-14T15:32:22.665Z,1812.00
2018-07-14T15:34:15.428Z,1804.00
2018-07-14T15:35:15.445Z,1792.00
2018-07-14T15:37:08.412Z,1780.00
2018-07-14T15:38:08.408Z,1772.00
2018-07-14T15:40:01.347Z,1752.00
2018-07-14T15:41:01.368Z,1756.00
2018-07-14T15:42:54.329Z,1744.00
2018-07-14T15:43:54.332Z,1732.00
2018-07-14T15:45:47.274Z,1716.00
2018-07-14T15:46:47.293Z,1704.00
2018-07-14T15:48:40.254Z,1700.00
2018-07-14T15:49:40.255Z,1692.00
2018-07-14T15:51:33.210Z,1676.00
2018-07-14T15:52:33.212Z,1680.00
2018-07-14T15:54:26.149Z,1676.00
2018-07-14T15:55:26.168Z,1676.00
2018-07-14T15:57:19.128Z,1664.00
2018-07-14T15:58:19.127Z,1656.00
2018-07-14T16:00:12.179Z,1632.00
2018-07-14T16:01:12.087Z,1624.00
2018-07-14T16:03:05.046Z,1612.00
2018-07-14T16:04:05.042Z,1604.00
2018-07-14T16:05:57.982Z,1588.00
2018-07-14T16:06:58.016Z,1572.00
2018-07-14T16:08:50.960Z,1568.00
2018-07-14T16:09:50.957Z,1560.00
2018-07-14T16:11:43.916Z,1556.00
2018-07-14T16:12:43.921Z,1544.00
2018-07-14T16:14:36.853Z,1520.00
2018-07-14T16:15:36.874Z,1508.00
2018-07-14T16:17:29.832Z,1500.00
2018-07-14T16:18:29.833Z,1492.00
2018-07-14T16:20:22.782Z,1468.00
2018-07-14T16:21:22.798Z,1456.00
2018-07-14T16:23:15.751Z,1432.00
2018-07-14T16:24:15.798Z,1420.00
2018-07-14T16:26:08.695Z,1396.00
2018-07-14T16:27:08.706Z,1392.00
2018-07-14T16:29:01.668Z,1368.00
2018-07-14T16:30:01.666Z,1352.00
2018-07-14T16:31:54.625Z,1328.00
2018-07-14T16:32:54.626Z,1316.00
2018-07-14T16:34:47.564Z,1296.00
2018-07-14T16:35:47.703Z,1284.00
2018-07-14T16:37:40.541Z,1272.00
2018-07-14T16:38:40.545Z,1268.00
2018-07-14T16:40:33.480Z,1256.00
2018-07-14T16:41:33.501Z,1244.00
2018-07-14T16:43:26.457Z,1220.00
2018-07-14T16:44:26.454Z,1220.00
2018-07-14T16:46:19.398Z,1204.00
2018-07-14T16:47:19.414Z,1192.00
2018-07-14T16:49:12.370Z,1172.00
2018-07-14T16:50:12.422Z,1172.00
2018-07-14T16:52:05.335Z,1152.00
2018-07-14T16:53:05.346Z,1148.00
2018-07-14T16:54:58.270Z,1136.00
2018-07-14T16:55:58.291Z,1120.00
2018-07-14T16:57:51.272Z,1100.00
2018-07-14T16:58:51.263Z,1092.00
2018-07-14T17:00:44.210Z,1080.00
2018-07-14T17:01:44.229Z,1080.00
2018-07-14T17:03:37.180Z,1060.00
2018-07-14T17:04:37.178Z,1056.00
2018-07-14T17:06:30.114Z,1040.00
2018-07-14T17:07:30.133Z,1032.00
2018-07-14T17:09:23.088Z,1012.00
2018-07-14T17:10:23.091Z,1012.00
2018-07-14T17:12:16.044Z,1008.00
2018-07-14T17:13:16.045Z,1000.00
2018-07-14T17:15:08.982Z,988.00
2018-07-14T17:16:09.002Z,984.00
2018-07-14T17:18:01.954Z,972.00
2018-07-14T17:19:01.954Z,968.00
2018-07-14T17:20:54.910Z,960.00
2018-07-14T17:21:54.910Z,952.00
2018-07-14T17:23:47.878Z,944.00
2018-07-14T17:24:47.870Z,936.00
2018-07-14T17:26:40.807Z,928.00
2018-07-14T17:27:40.828Z,924.00
2018-07-14T17:29:33.781Z,916.00
2018-07-14T17:30:33.779Z,916.00
2018-07-14T17:32:26.735Z,904.00
2018-07-14T17:33:26.738Z,900.00
2018-07-14T17:35:19.678Z,888.00
2018-07-14T17:36:19.691Z,880.00
2018-07-14T17:38:12.650Z,864.00
2018-07-14T17:39:12.648Z,864.00
2018-07-14T17:41:05.585Z,852.00
2018-07-14T17:42:05.603Z,844.00
2018-07-14T17:43:58.627Z,832.00
2018-07-14T17:44:58.560Z,828.00
2018-07-14T17:46:51.505Z,820.00
2018-07-14T17:47:51.515Z,812.00
2018-07-14T17:49:44.467Z,808.00
2018-07-14T17:50:44.467Z,800.00
2018-07-14T17:52:37.425Z,792.00
2018-07-14T17:53:37.426Z,784.00
2018-07-14T17:55:30.365Z,772.00
2018-07-14T17:56:30.384Z,772.00
2018-07-14T17:58:23.341Z,760.00
2018-07-14T17:59:23.338Z,756.00
2018-07-14T18:01:16.274Z,744.00
2018-07-14T18:02:16.295Z,740.00
2018-07-14T18:04:09.253Z,732.00
2018-07-14T18:05:09.256Z,728.00
2018-07-14T18:07:02.188Z,712.00
2018-07-14T18:08:02.208Z,708.00
2018-07-14T18:09:55.164Z,704.00